Portada
METAR-TAF:

METAR-TAF

Aeroports :

Aeroport Internacional de Hong Kong

Hong Kong, Xina

latitud: 22-19N, longitud: 113-55E, altitud: 9 m

Observació

L'informe es va fer fa 35 minuts, a les 20:00 UTC
Vent 13 kt del Est
Temperatura 28°C
Humitat 74%
Pressió 1008 hPa
Visibilitat 10 km o més
Escasses núvols a una alçada de 2500 ft

METAR: VHHH 252000Z 09013KT 9999 FEW025 28/23 Q1008 NOSIG

Hora: 04:35 (20:35 UTC)

Pronòstic

L'informe es va fer fa 3 hores i 35 minuts, a les 17:00 UTC
Pronòstic vàlid del 25 a les 18 UTC al 26 a les 24 UTC
Vent 15 kt del Est
Visibilitat 10 km o més
Escasses núvols a una alçada de 2000 ft
Temporalment
l' 25 a les 21 UTC al 26 a les 02 UTC
Visibilitat: 4000 m
Escasses núvols a una alçada de 1000 ft, Cumulonimbus.
Núvols disperses a una alçada de 2500 ft
xàfecs de pluja

TAF: VHHH 251700Z 2518/2624 10015KT 9999 FEW020 TX31/2606Z TN26/2522Z TN26/2622Z TEMPO 2521/2602 4000 SHRA FEW010CB SCT025

Observacions i pronòstics meteorològics de més de 4000 aeroports (METAR i TAF).

Les estacions disponibles són els punts grocs i vermells al mapa.

Posi el ratolí al punt desitjat per veure el nom de l'estació.

Feu clic per veure les observacions i els pronòstics meteorològics.

Per canviar el mapa: feu clic els botons verds amb una creu de color negre per apropar; al botó verd amb un guió per allunyar la imatge; o en les fletxes verdes per a mapes adjacents.


METAR-TAF: